Time;durP1;ratioP1;P1;durP2;ratioP2;P2;SDS_P1;SDS_P2;PMS_P1;PMS_P2;Temp;Humidity;BMP_temperature;BMP_pressure;BME280_temperature;BME280_humidity;BME280_pressure;Samples;Min_cycle;Max_cycle;Signal;HPM_P1;HPM_P2
2022/06/11 00:01:25;;;;;;;3.77;3.40;;;16.80;99.40;;;;;;7378390;19;20376;-84
2022/06/11 00:04:02;;;;;;;4.20;2.90;;;16.80;99.70;;;;;;7379884;19;20376;-85
2022/06/11 00:06:33;;;;;;;3.90;3.10;;;16.80;99.70;;;;;;7370866;19;20407;-82
2022/06/11 00:09:07;;;;;;;4.07;2.43;;;16.90;99.40;;;;;;7372135;19;20418;-83
2022/06/11 00:11:37;;;;;;;4.23;2.77;;;16.80;99.10;;;;;;7376630;19;20428;-83
2022/06/11 00:14:08;;;;;;;6.10;2.57;;;16.70;99.90;;;;;;7370588;19;21264;-82
2022/06/11 00:16:38;;;;;;;2.67;2.47;;;16.70;99.40;;;;;;7368480;19;20527;-82
2022/06/11 00:19:10;;;;;;;3.60;2.67;;;16.90;98.70;;;;;;7374376;19;20380;-83
2022/06/11 00:21:47;;;;;;;3.70;2.63;;;16.70;99.10;;;;;;7374037;19;20403;-82
2022/06/11 00:24:17;;;;;;;3.80;2.53;;;16.70;98.90;;;;;;7373766;19;20751;-82
2022/06/11 00:26:48;;;;;;;3.10;2.57;;;16.60;99.30;;;;;;7375703;19;20944;-82
2022/06/11 00:29:20;;;;;;;3.50;2.30;;;16.50;99.90;;;;;;7367358;19;20912;-83
2022/06/11 00:31:49;;;;;;;6.63;3.27;;;16.60;99.50;;;;;;7375988;19;20432;-82
2022/06/11 00:34:22;;;;;;;4.97;2.67;;;16.70;99.60;;;;;;7373365;19;20376;-83
2022/06/11 00:36:52;;;;;;;7.03;2.60;;;16.60;99.70;;;;;;7377083;19;20396;-83
2022/06/11 00:39:25;;;;;;;2.60;2.40;;;16.70;99.80;;;;;;7374836;19;20404;-82
2022/06/11 00:41:58;;;;;;;4.20;2.30;;;16.60;99.70;;;;;;7371426;19;20450;-83
2022/06/11 00:44:28;;;;;;;5.13;2.80;;;16.70;99.00;;;;;;7374295;19;20387;-84
2022/06/11 00:47:02;;;;;;;2.30;2.10;;;16.70;99.50;;;;;;7375069;19;20465;-85
2022/06/11 00:49:42;;;;;;;3.03;2.57;;;16.60;99.30;;;;;;7375062;19;20424;-81
2022/06/11 00:52:32;;;;;;;3.13;2.40;;;16.40;99.90;;;;;;7375134;19;20416;-83
2022/06/11 00:55:07;;;;;;;8.00;2.90;;;16.20;99.90;;;;;;7377559;19;20368;-82
2022/06/11 00:57:45;;;;;;;4.60;2.60;;;16.10;99.90;;;;;;7374490;19;20458;-82
2022/06/11 01:00:20;;;;;;;4.37;2.50;;;16.10;99.90;;;;;;7375059;19;20457;-82
2022/06/11 01:02:50;;;;;;;4.20;3.00;;;16.00;99.90;;;;;;7375728;19;21399;-82
2022/06/11 01:05:25;;;;;;;3.47;2.87;;;16.00;99.90;;;;;;7375051;19;20424;-82
2022/06/11 01:08:14;;;;;;;4.07;3.20;;;16.10;99.90;;;;;;7376104;19;20400;-82
2022/06/11 01:11:16;;;;;;;3.13;2.73;;;16.30;99.90;;;;;;7372235;19;20987;-78
2022/06/11 01:13:57;;;;;;;3.90;3.50;;;16.20;99.90;;;;;;7369659;19;20447;-77
2022/06/11 01:16:37;;;;;;;3.20;2.60;;;16.00;99.90;;;;;;7365737;19;20432;-78
2022/06/11 01:19:26;;;;;;;3.67;2.80;;;16.00;99.90;;;;;;7354911;19;20491;-79
2022/06/11 01:22:16;;;;;;;2.60;2.40;;;15.90;99.90;;;;;;7366240;19;20407;-79
2022/06/11 01:25:09;;;;;;;3.13;2.37;;;16.00;99.90;;;;;;7366523;19;20404;-83
2022/06/11 01:28:02;;;;;;;5.17;2.90;;;16.20;99.90;;;;;;7371978;19;20781;-83
2022/06/11 01:30:44;;;;;;;4.20;2.63;;;16.10;99.90;;;;;;7366858;19;20416;-83
2022/06/11 01:33:19;;;;;;;3.03;2.73;;;15.90;99.90;;;;;;7372420;19;20427;-83
2022/06/11 01:36:00;;;;;;;9.20;3.50;;;16.20;99.90;;;;;;7364698;19;20419;-83
2022/06/11 01:38:35;;;;;;;4.57;2.83;;;16.00;99.90;;;;;;7367474;19;20941;-84
2022/06/11 01:41:21;;;;;;;4.53;2.73;;;15.80;99.90;;;;;;7364194;19;20400;-82
2022/06/11 01:43:52;;;;;;;6.43;3.27;;;15.80;99.90;;;;;;7371843;19;20380;-83
2022/06/11 01:46:27;;;;;;;5.57;2.60;;;15.80;99.90;;;;;;7363684;19;20408;-83
2022/06/11 01:49:03;;;;;;;4.43;3.10;;;15.60;99.90;;;;;;7372045;19;20976;-83
2022/06/11 01:51:46;;;;;;;3.27;2.77;;;15.60;99.90;;;;;;7370976;19;20924;-84
2022/06/11 01:54:30;;;;;;;3.77;2.70;;;15.80;99.90;;;;;;7367849;19;20420;-83
2022/06/11 01:57:17;;;;;;;3.70;3.07;;;15.80;99.90;;;;;;7371190;19;21067;-83
2022/06/11 02:00:10;;;;;;;4.67;3.30;;;15.60;99.90;;;;;;7372243;19;20948;-83
2022/06/11 02:02:55;;;;;;;2.80;2.30;;;15.60;99.90;;;;;;7376112;19;20428;-82
2022/06/11 02:05:35;;;;;;;3.73;2.70;;;15.50;99.90;;;;;;7371924;19;20396;-83
2022/06/11 02:08:16;;;;;;;3.13;2.83;;;15.50;99.90;;;;;;7372836;19;20803;-83
2022/06/11 02:10:56;;;;;;;2.83;2.00;;;15.60;99.90;;;;;;7372434;19;20423;-83
2022/06/11 02:13:33;;;;;;;6.50;3.10;;;15.70;99.90;;;;;;7371258;19;20766;-83
2022/06/11 02:16:10;;;;;;;3.60;3.10;;;15.90;99.90;;;;;;7371320;19;21145;-83
2022/06/11 02:18:44;;;;;;;3.83;2.43;;;15.70;99.90;;;;;;7375217;19;20427;-82
2022/06/11 02:21:19;;;;;;;2.70;2.50;;;15.70;99.90;;;;;;7373484;19;20384;-83
2022/06/11 02:23:54;;;;;;;3.63;2.87;;;15.70;99.90;;;;;;7365396;19;20955;-83
2022/06/11 02:26:28;;;;;;;3.97;2.80;;;15.70;99.90;;;;;;7377434;19;21820;-85
2022/06/11 02:29:01;;;;;;;4.53;2.67;;;15.60;99.90;;;;;;7380285;19;20418;-85
2022/06/11 02:31:49;;;;;;;3.13;2.70;;;15.30;99.90;;;;;;7381623;19;20411;-85
2022/06/11 02:34:24;;;;;;;3.47;3.17;;;15.40;99.90;;;;;;7382441;19;21184;-85
2022/06/11 02:37:01;;;;;;;4.87;3.00;;;15.50;99.90;;;;;;7387947;19;20410;-85
2022/06/11 02:39:34;;;;;;;4.20;2.57;;;15.60;99.90;;;;;;7387274;19;20948;-86
2022/06/11 02:42:09;;;;;;;3.20;2.90;;;15.50;99.90;;;;;;7389453;19;20724;-86
2022/06/11 02:44:38;;;;;;;2.80;2.60;;;15.70;99.90;;;;;;7390201;19;20404;-86
2022/06/11 02:47:09;;;;;;;4.53;2.83;;;15.70;99.90;;;;;;7384556;19;21264;-84
2022/06/11 02:49:41;;;;;;;5.17;3.07;;;15.70;99.90;;;;;;7410687;19;20411;-85
2022/06/11 02:52:14;;;;;;;3.20;2.90;;;15.70;99.90;;;;;;7420066;19;20392;-85
2022/06/11 02:54:49;;;;;;;4.00;3.07;;;15.50;99.90;;;;;;7419262;19;20411;-84
2022/06/11 02:57:22;;;;;;;3.00;2.43;;;15.10;99.90;;;;;;7417832;19;20428;-86
2022/06/11 02:59:55;;;;;;;3.07;2.73;;;15.20;99.90;;;;;;7421212;19;20416;-86
2022/06/11 03:02:26;;;;;;;6.17;2.80;;;15.40;99.90;;;;;;7416441;19;20404;-86
2022/06/11 03:04:58;;;;;;;3.23;3.03;;;15.30;99.90;;;;;;7390952;19;20411;-87
2022/06/11 03:07:33;;;;;;;3.60;3.27;;;15.30;99.90;;;;;;7383848;19;20392;-87
2022/06/11 03:10:03;;;;;;;5.30;2.77;;;15.30;99.90;;;;;;7375494;19;20373;-87
2022/06/11 03:12:32;;;;;;;4.97;2.80;;;15.10;99.90;;;;;;7379037;19;20392;-87
2022/06/11 03:15:02;;;;;;;3.30;2.83;;;15.30;99.90;;;;;;7381498;19;20437;-87
2022/06/11 03:17:31;;;;;;;4.47;3.00;;;15.10;99.90;;;;;;7380080;19;20464;-88
2022/06/11 03:20:04;;;;;;;3.43;2.90;;;15.00;99.90;;;;;;7376919;19;20392;-87
2022/06/11 03:22:36;;;;;;;2.90;2.70;;;15.10;99.90;;;;;;7383298;19;20390;-88
2022/06/11 03:25:08;;;;;;;7.83;3.67;;;15.00;99.90;;;;;;7382035;19;20725;-88
2022/06/11 03:27:42;;;;;;;4.20;3.10;;;15.00;99.90;;;;;;7385561;19;20830;-86
2022/06/11 03:30:15;;;;;;;5.07;2.77;;;14.80;99.90;;;;;;7385441;19;20408;-85
2022/06/11 03:32:44;;;;;;;3.80;2.57;;;14.80;99.90;;;;;;7388028;19;20475;-86
2022/06/11 03:35:17;;;;;;;4.23;2.60;;;15.00;99.90;;;;;;7385855;19;20416;-84
2022/06/11 03:37:47;;;;;;;3.60;2.47;;;15.00;99.90;;;;;;7385076;19;20404;-85
2022/06/11 03:40:17;;;;;;;3.90;2.60;;;14.90;99.90;;;;;;7379712;19;20412;-85
2022/06/11 03:42:46;;;;;;;3.37;3.07;;;14.70;99.90;;;;;;7383242;19;20446;-85
2022/06/11 03:45:16;;;;;;;4.37;2.77;;;14.80;99.90;;;;;;7382240;19;20438;-86
2022/06/11 03:47:46;;;;;;;4.43;2.70;;;14.80;99.90;;;;;;7381673;19;20427;-86
2022/06/11 03:50:24;;;;;;;3.63;2.70;;;14.80;99.90;;;;;;7383188;19;20495;-85
2022/06/11 03:52:53;;;;;;;3.60;2.47;;;14.90;99.90;;;;;;7383471;19;20502;-85
2022/06/11 03:55:28;;;;;;;4.97;2.63;;;14.80;99.90;;;;;;7383199;19;20892;-85
2022/06/11 03:58:00;;;;;;;2.60;2.30;;;14.90;99.90;;;;;;7381909;19;20558;-86
2022/06/11 04:03:19;;;;;;;3.77;3.30;;;15.10;99.90;;;;;;7376789;19;22108;-85
2022/06/11 04:05:55;;;;;;;4.13;3.07;;;14.80;99.90;;;;;;7379218;19;21083;-84
2022/06/11 04:08:27;;;;;;;3.00;2.50;;;14.60;99.90;;;;;;7381742;19;20423;-84
2022/06/11 04:10:59;;;;;;;3.50;3.20;;;14.90;99.90;;;;;;7382837;19;20447;-85
2022/06/11 04:13:31;;;;;;;2.90;2.20;;;15.00;99.90;;;;;;7384956;19;20404;-85
2022/06/11 04:16:02;;;;;;;4.53;3.13;;;15.10;99.90;;;;;;7383975;19;20411;-85
2022/06/11 04:18:35;;;;;;;3.83;3.00;;;15.20;99.90;;;;;;7383445;19;20392;-85
2022/06/11 04:21:11;;;;;;;5.87;3.43;;;15.30;99.90;;;;;;7384787;19;20416;-84
2022/06/11 04:23:47;;;;;;;5.83;3.63;;;15.20;99.90;;;;;;7382685;19;20408;-84
2022/06/11 04:26:27;;;;;;;7.20;4.60;;;14.90;99.90;;;;;;7385051;19;20380;-85
2022/06/11 04:28:59;;;;;;;5.60;4.40;;;15.10;99.90;;;;;;7382530;19;20388;-85
2022/06/11 04:31:29;;;;;;;4.97;3.30;;;15.10;99.90;;;;;;7380929;19;20397;-84
2022/06/11 04:34:02;;;;;;;6.43;4.10;;;15.20;99.90;;;;;;7383177;19;21213;-84
2022/06/11 04:36:38;;;;;;;5.60;3.43;;;14.90;99.90;;;;;;7383281;19;20400;-85
2022/06/11 04:39:12;;;;;;;6.63;4.07;;;14.90;99.90;;;;;;7383671;19;20513;-84
2022/06/11 04:41:41;;;;;;;4.70;4.27;;;14.80;99.90;;;;;;7383892;19;20400;-85
2022/06/11 04:44:11;;;;;;;4.80;3.53;;;15.00;99.90;;;;;;7378705;19;21227;-86
2022/06/11 04:46:43;;;;;;;6.40;3.63;;;14.90;99.90;;;;;;7379244;19;20400;-85
2022/06/11 04:49:13;;;;;;;6.80;4.00;;;14.80;99.90;;;;;;7380964;19;21240;-85
2022/06/11 04:51:45;;;;;;;6.13;3.07;;;14.90;99.90;;;;;;7381991;19;21095;-85
2022/06/11 04:54:15;;;;;;;5.47;3.70;;;14.90;99.90;;;;;;7385933;19;20368;-84
2022/06/11 04:56:47;;;;;;;3.90;3.13;;;14.90;99.90;;;;;;7381821;19;20487;-85
2022/06/11 04:59:17;;;;;;;6.33;3.80;;;15.30;99.90;;;;;;7379492;19;20426;-84
2022/06/11 05:01:49;;;;;;;7.00;3.30;;;15.60;99.90;;;;;;7378974;19;20417;-84
2022/06/11 05:04:19;;;;;;;3.90;3.33;;;15.70;99.90;;;;;;7381856;19;20455;-84
2022/06/11 05:06:54;;;;;;;4.93;3.20;;;15.80;99.90;;;;;;7377360;19;20404;-85
2022/06/11 05:09:28;;;;;;;3.87;3.10;;;15.70;99.90;;;;;;7382378;19;20451;-85
2022/06/11 05:11:58;;;;;;;4.17;3.13;;;15.80;99.90;;;;;;7380912;19;20968;-85
2022/06/11 05:14:28;;;;;;;4.63;3.07;;;16.00;99.90;;;;;;7381933;19;20408;-84
2022/06/11 05:17:01;;;;;;;3.90;3.50;;;15.80;99.90;;;;;;7379895;19;20411;-84
2022/06/11 05:19:33;;;;;;;4.93;2.63;;;15.80;99.90;;;;;;7377624;19;20407;-84
2022/06/11 05:22:06;;;;;;;3.73;2.80;;;15.80;99.90;;;;;;7379763;19;21057;-85
2022/06/11 05:24:38;;;;;;;8.70;3.57;;;16.00;99.90;;;;;;7381721;19;20435;-85
2022/06/11 05:27:11;;;;;;;8.07;2.20;;;16.10;99.90;;;;;;7383318;19;20924;-85
2022/06/11 05:29:54;;;;;;;5.47;2.93;;;16.20;99.90;;;;;;7383224;19;20404;-87
2022/06/11 05:32:26;;;;;;;4.43;3.37;;;16.40;99.90;;;;;;7375558;19;21031;-87
2022/06/11 05:34:56;;;;;;;5.40;3.00;;;16.60;99.90;;;;;;7380618;19;21094;-84
2022/06/11 05:37:30;;;;;;;3.83;3.43;;;16.60;99.90;;;;;;7377785;19;20412;-87
2022/06/11 05:39:59;;;;;;;3.50;3.20;;;16.90;99.90;;;;;;7378201;19;20404;-85
2022/06/11 05:42:29;;;;;;;4.30;3.57;;;17.20;99.90;;;;;;7376899;19;20412;-85
2022/06/11 05:44:59;;;;;;;3.17;2.67;;;17.20;99.90;;;;;;7382154;19;20404;-84
2022/06/11 05:47:30;;;;;;;3.10;2.63;;;17.10;99.90;;;;;;7375750;19;20957;-84
2022/06/11 05:50:02;;;;;;;4.03;3.17;;;17.20;99.90;;;;;;7379358;19;20745;-85
2022/06/11 05:52:39;;;;;;;3.00;2.70;;;17.20;99.90;;;;;;7375497;19;20415;-85
2022/06/11 05:55:09;;;;;;;4.47;2.60;;;17.20;99.90;;;;;;7378960;19;20983;-85
2022/06/11 05:57:43;;;;;;;2.93;2.57;;;17.40;99.90;;;;;;7378670;19;20447;-84
2022/06/11 06:00:16;;;;;;;4.33;2.70;;;17.70;99.90;;;;;;7375532;19;20380;-84
2022/06/11 06:02:47;;;;;;;3.90;2.70;;;17.80;99.60;;;;;;7377342;19;21110;-85
2022/06/11 06:05:25;;;;;;;4.90;2.90;;;18.10;98.40;;;;;;7374865;19;20427;-85
2022/06/11 06:07:57;;;;;;;3.83;2.40;;;18.40;97.60;;;;;;7375527;19;20424;-84
2022/06/11 06:10:28;;;;;;;2.87;2.40;;;18.60;97.20;;;;;;7379037;19;20408;-85
2022/06/11 06:12:58;;;;;;;3.00;2.70;;;18.70;96.80;;;;;;7373498;19;20400;-85
2022/06/11 06:15:31;;;;;;;4.83;3.27;;;18.90;96.40;;;;;;7382416;19;20671;-85
2022/06/11 06:18:02;;;;;;;3.13;2.77;;;19.10;95.70;;;;;;7385323;19;20411;-85
2022/06/11 06:20:33;;;;;;;5.60;3.50;;;19.10;95.20;;;;;;7379580;19;20484;-85
2022/06/11 06:23:06;;;;;;;3.87;2.83;;;19.20;93.80;;;;;;7383555;19;20423;-85
2022/06/11 06:25:38;;;;;;;3.00;2.80;;;19.40;93.00;;;;;;7385348;19;20396;-84
2022/06/11 06:28:08;;;;;;;3.97;2.87;;;19.50;92.80;;;;;;7381367;19;20407;-84
2022/06/11 06:30:39;;;;;;;3.37;2.30;;;19.60;91.80;;;;;;7375976;19;20437;-85
2022/06/11 06:33:11;;;;;;;5.90;2.90;;;19.80;91.80;;;;;;7383229;19;20447;-85
2022/06/11 06:35:40;;;;;;;3.20;2.43;;;20.00;91.60;;;;;;7376290;19;20484;-84
2022/06/11 06:38:13;;;;;;;4.30;3.30;;;20.10;91.00;;;;;;7383137;19;20416;-84
2022/06/11 06:40:42;;;;;;;4.47;2.30;;;20.40;90.60;;;;;;7385548;19;20379;-85
2022/06/11 06:43:14;;;;;;;2.97;2.10;;;20.50;88.50;;;;;;7379624;19;20480;-86
2022/06/11 06:45:43;;;;;;;6.97;2.83;;;20.60;87.70;;;;;;7377012;19;20972;-87
2022/06/11 06:48:13;;;;;;;4.83;2.70;;;20.80;85.60;;;;;;7386756;19;20404;-85
2022/06/11 06:50:43;;;;;;;4.13;2.20;;;20.80;83.90;;;;;;7380128;19;20406;-86
2022/06/11 06:53:17;;;;;;;6.33;3.10;;;21.00;83.70;;;;;;7382912;19;20491;-85
2022/06/11 06:55:48;;;;;;;3.30;2.60;;;21.20;82.00;;;;;;7383439;19;20404;-89
2022/06/11 06:58:18;;;;;;;8.13;2.37;;;21.30;82.00;;;;;;7383534;19;20412;-80
2022/06/11 07:00:48;;;;;;;3.27;2.40;;;21.50;80.80;;;;;;7393120;19;20404;-83
2022/06/11 07:03:21;;;;;;;4.90;2.47;;;21.70;79.10;;;;;;7399032;19;20419;-83
2022/06/11 07:05:54;;;;;;;12.93;2.57;;;21.70;78.60;;;;;;7399356;19;20412;-86
2022/06/11 07:08:26;;;;;;;5.90;2.00;;;21.70;77.00;;;;;;7392297;19;20419;-78
2022/06/11 07:10:58;;;;;;;3.70;1.98;;;21.90;76.10;;;;;;7367592;19;20383;-88
2022/06/11 07:13:29;;;;;;;1.73;1.63;;;22.40;71.60;;;;;;7375303;19;20147;-87
2022/06/11 07:16:00;;;;;;;2.20;1.90;;;22.30;70.80;;;;;;7375827;19;20747;-88
2022/06/11 07:18:37;;;;;;;3.67;2.03;;;22.30;70.60;;;;;;7373788;19;20953;-81
2022/06/11 07:21:11;;;;;;;2.33;2.10;;;22.40;69.80;;;;;;7371483;19;20431;-89
2022/06/11 07:23:47;;;;;;;2.17;1.97;;;22.50;69.40;;;;;;7380990;19;20420;-85
2022/06/11 07:26:24;;;;;;;4.53;2.13;;;22.70;68.60;;;;;;7372081;19;20678;-87
2022/06/11 07:29:00;;;;;;;4.60;2.43;;;22.80;68.30;;;;;;7381489;19;20490;-87
2022/06/11 07:31:31;;;;;;;2.80;2.37;;;23.10;66.90;;;;;;7379151;19;20423;-87
2022/06/11 07:34:01;;;;;;;2.07;1.40;;;23.10;67.10;;;;;;7378194;19;20740;-88
2022/06/11 07:36:32;;;;;;;2.13;1.93;;;23.20;66.50;;;;;;7369610;19;20416;-86
2022/06/11 07:39:06;;;;;;;4.43;2.33;;;23.30;65.20;;;;;;7353954;19;20420;-86
2022/06/11 07:41:36;;;;;;;4.37;2.70;;;23.50;63.90;;;;;;7348464;19;20480;-86
2022/06/11 07:44:06;;;;;;;4.73;2.20;;;23.60;63.50;;;;;;7355186;19;20391;-86
2022/06/11 07:46:35;;;;;;;4.50;1.83;;;23.80;63.20;;;;;;7376492;19;20420;-86
2022/06/11 07:49:07;;;;;;;3.43;2.33;;;23.80;62.20;;;;;;7379977;19;20433;-86
2022/06/11 07:51:37;;;;;;;2.20;2.00;;;23.90;60.80;;;;;;7375394;19;21042;-85
2022/06/11 07:54:10;;;;;;;2.27;1.70;;;24.00;60.40;;;;;;7376499;19;20862;-83
2022/06/11 07:56:40;;;;;;;5.73;2.83;;;24.20;60.40;;;;;;7367820;19;20428;-85
2022/06/11 07:59:10;;;;;;;2.60;2.03;;;24.30;59.10;;;;;;7371719;19;20444;-86
2022/06/11 08:01:39;;;;;;;2.87;2.20;;;24.40;58.40;;;;;;7372204;19;20412;-85
2022/06/11 08:04:09;;;;;;;4.90;1.70;;;24.40;58.10;;;;;;7372633;19;20404;-86
2022/06/11 08:06:41;;;;;;;2.87;2.17;;;24.50;57.90;;;;;;7375675;19;20420;-84
2022/06/11 08:09:13;;;;;;;5.30;2.20;;;24.60;57.70;;;;;;7375826;19;20424;-85
2022/06/11 08:11:43;;;;;;;3.60;2.00;;;24.70;56.60;;;;;;7371779;19;20447;-84
2022/06/11 08:14:12;;;;;;;2.80;1.77;;;24.70;55.60;;;;;;7378192;19;20877;-85
2022/06/11 08:16:42;;;;;;;3.50;2.00;;;24.90;55.90;;;;;;7378053;19;20423;-86
2022/06/11 08:19:12;;;;;;;4.30;2.40;;;25.10;55.60;;;;;;7378127;19;20423;-86
2022/06/11 08:21:41;;;;;;;2.53;1.83;;;25.20;55.00;;;;;;7377872;19;20511;-86
2022/06/11 08:24:13;;;;;;;2.30;1.97;;;25.40;54.10;;;;;;7379230;19;20404;-86
2022/06/11 08:26:43;;;;;;;5.53;3.37;;;25.60;53.70;;;;;;7372464;19;21005;-84
2022/06/11 08:29:15;;;;;;;4.43;2.03;;;25.60;52.40;;;;;;7380341;19;20412;-83
2022/06/11 08:31:44;;;;;;;4.10;2.37;;;25.50;52.60;;;;;;7377364;19;20412;-84
2022/06/11 08:34:14;;;;;;;6.23;2.23;;;25.50;52.70;;;;;;7374378;19;20412;-85
2022/06/11 08:36:43;;;;;;;3.07;2.40;;;25.60;53.10;;;;;;7377429;19;20404;-82
2022/06/11 08:39:18;;;;;;;3.43;2.20;;;25.80;52.50;;;;;;7375625;19;21170;-85
2022/06/11 08:41:49;;;;;;;3.10;1.80;;;26.10;51.70;;;;;;7380714;19;20415;-86
2022/06/11 08:44:19;;;;;;;2.70;1.87;;;26.30;51.60;;;;;;7378791;19;20409;-86
2022/06/11 08:46:50;;;;;;;2.00;1.90;;;26.60;51.60;;;;;;7378777;19;20419;-85
2022/06/11 08:49:31;;;;;;;3.87;1.80;;;26.70;50.80;;;;;;7376570;19;20425;-86
2022/06/11 08:52:12;;;;;;;2.87;1.90;;;26.90;49.60;;;;;;7374866;19;20408;-82
2022/06/11 08:54:47;;;;;;;3.10;2.20;;;27.10;49.40;;;;;;7374599;19;20944;-82
2022/06/11 08:57:25;;;;;;;5.07;2.00;;;27.40;48.20;;;;;;7376209;19;20436;-83
2022/06/11 09:00:06;;;;;;;3.80;2.10;;;27.60;47.10;;;;;;7374932;19;20424;-81
2022/06/11 09:03:01;;;;;;;3.30;2.40;;;27.80;46.40;;;;;;7376423;19;20491;-82
2022/06/11 09:05:58;;;;;;;3.00;1.80;;;27.80;46.00;;;;;;7377938;19;20926;-82
2022/06/11 09:08:53;;;;;;;3.60;2.10;;;28.10;45.80;;;;;;7374603;19;20412;-82
2022/06/11 09:11:41;;;;;;;3.17;1.50;;;28.30;45.50;;;;;;7369328;19;20439;-83
2022/06/11 09:14:39;;;;;;;3.60;2.10;;;29.00;44.40;;;;;;7375142;19;20404;-82
2022/06/11 09:17:28;;;;;;;2.10;1.70;;;29.00;43.10;;;;;;7371798;19;20433;-82
2022/06/11 09:20:10;;;;;;;2.30;1.83;;;29.30;43.10;;;;;;7377540;19;20403;-87
2022/06/11 09:23:02;;;;;;;2.90;1.80;;;29.50;43.20;;;;;;7382206;19;20396;-86
2022/06/11 09:25:42;;;;;;;2.30;1.70;;;30.00;41.30;;;;;;7382955;19;20399;-87
2022/06/11 09:28:24;;;;;;;3.10;1.90;;;30.40;41.00;;;;;;7383968;19;20734;-88
2022/06/11 09:31:02;;;;;;;4.00;2.40;;;30.80;40.50;;;;;;7382272;19;20414;-90
2022/06/11 09:33:40;;;;;;;3.87;1.87;;;31.20;39.30;;;;;;7382190;19;20403;-89
2022/06/11 09:36:14;;;;;;;2.67;1.70;;;31.50;38.70;;;;;;7381272;19;20694;-88
2022/06/11 09:38:57;;;;;;;3.70;2.00;;;32.00;37.90;;;;;;7381513;19;20400;-88
2022/06/11 09:41:38;;;;;;;3.63;1.50;;;32.50;36.80;;;;;;7383952;19;20416;-87
2022/06/11 09:44:30;;;;;;;2.57;1.80;;;32.50;36.50;;;;;;7383388;19;20408;-87
2022/06/11 09:47:06;;;;;;;1.87;1.57;;;32.50;35.50;;;;;;7379061;19;20419;-89
2022/06/11 09:49:46;;;;;;;4.03;1.70;;;32.50;35.60;;;;;;7379910;19;20411;-88
2022/06/11 09:52:24;;;;;;;4.50;2.00;;;33.20;35.00;;;;;;7375510;19;20396;-88
2022/06/11 09:54:56;;;;;;;2.27;1.67;;;33.90;33.90;;;;;;7377174;19;20773;-89
2022/06/11 09:57:40;;;;;;;6.27;2.50;;;34.40;33.00;;;;;;7377274;19;20416;-89
2022/06/11 10:00:22;;;;;;;3.03;1.77;;;35.00;32.20;;;;;;7375686;19;20400;-82
2022/06/11 10:03:00;;;;;;;2.43;1.60;;;35.30;31.70;;;;;;7376181;19;20432;-82
2022/06/11 10:05:46;;;;;;;3.83;1.60;;;35.50;30.90;;;;;;7372525;19;20420;-82
2022/06/11 10:08:21;;;;;;;3.10;1.87;;;36.00;30.70;;;;;;7370886;19;20444;-82
2022/06/11 10:10:54;;;;;;;3.77;1.77;;;36.10;30.30;;;;;;7374350;19;20860;-82
2022/06/11 10:13:39;;;;;;;2.43;1.43;;;36.10;30.50;;;;;;7372808;19;20431;-81
2022/06/11 10:16:32;;;;;;;4.23;1.60;;;36.90;29.60;;;;;;7373253;19;20372;-82
2022/06/11 10:19:20;;;;;;;2.53;1.70;;;37.50;29.10;;;;;;7370986;19;20407;-82
2022/06/11 10:21:57;;;;;;;3.43;1.53;;;37.00;29.00;;;;;;7355478;19;20419;-81
2022/06/11 10:24:30;;;;;;;4.37;1.97;;;36.90;29.50;;;;;;7352813;19;20543;-82
2022/06/11 10:27:05;;;;;;;4.63;1.67;;;37.50;28.70;;;;;;7371731;19;20465;-82
2022/06/11 10:29:42;;;;;;;5.13;2.23;;;37.20;29.70;;;;;;7370902;19;20405;-82
2022/06/11 10:32:21;;;;;;;2.37;1.87;;;36.50;29.10;;;;;;7373349;19;20423;-82
2022/06/11 10:34:59;;;;;;;10.53;5.67;;;35.50;30.40;;;;;;7368531;19;21067;-82
2022/06/11 10:37:36;;;;;;;15.67;6.20;;;34.60;32.40;;;;;;7371744;19;20404;-82
2022/06/11 10:40:18;;;;;;;2.33;1.80;;;33.70;33.40;;;;;;7370374;19;20412;-82
2022/06/11 10:42:57;;;;;;;69.97;30.67;;;33.10;34.50;;;;;;7371963;19;20519;-82
2022/06/11 10:45:28;;;;;;;52.40;23.20;;;32.30;40.00;;;;;;7369842;19;20766;-83
2022/06/11 10:48:02;;;;;;;55.77;22.73;;;31.90;39.30;;;;;;7366537;19;20416;-82
2022/06/11 10:50:35;;;;;;;37.50;16.33;;;31.50;40.30;;;;;;7368186;19;20721;-82
2022/06/11 10:53:10;;;;;;;3.83;2.90;;;31.20;41.00;;;;;;7367435;19;20401;-81
2022/06/11 10:55:45;;;;;;;5.87;2.53;;;32.30;37.40;;;;;;7372905;19;20769;-82
2022/06/11 10:58:23;;;;;;;5.83;1.93;;;34.20;33.80;;;;;;7367403;19;20423;-82
2022/06/11 11:00:56;;;;;;;3.20;2.40;;;35.90;31.30;;;;;;7378247;19;20423;-82
2022/06/11 11:03:38;;;;;;;2.90;2.00;;;37.50;29.20;;;;;;7376576;19;20754;-82
2022/06/11 11:06:09;;;;;;;2.20;1.53;;;38.90;28.20;;;;;;7379762;19;20400;-82
2022/06/11 11:08:53;;;;;;;3.43;2.00;;;39.80;27.30;;;;;;7378900;19;21574;-83
2022/06/11 11:11:23;;;;;;;2.90;1.80;;;40.80;26.30;;;;;;7378008;19;20475;-86
2022/06/11 11:14:02;;;;;;;3.33;2.03;;;40.70;25.70;;;;;;7377246;19;21464;-86
2022/06/11 11:16:39;;;;;;;2.00;1.80;;;40.80;25.00;;;;;;7378680;19;20995;-87
2022/06/11 11:19:22;;;;;;;5.10;1.80;;;40.60;25.20;;;;;;7379006;19;20388;-87
2022/06/11 11:21:58;;;;;;;2.63;1.73;;;40.40;25.40;;;;;;7380583;19;20408;-87
2022/06/11 11:24:35;;;;;;;4.43;1.60;;;39.60;25.40;;;;;;7380914;19;20407;-87
2022/06/11 11:27:09;;;;;;;4.97;2.13;;;40.10;25.70;;;;;;7381060;19;20400;-86
2022/06/11 11:29:42;;;;;;;1.80;1.20;;;40.60;25.50;;;;;;7380866;19;21283;-86
2022/06/11 11:32:31;;;;;;;3.00;1.80;;;41.90;24.80;;;;;;7377072;19;20503;-87
2022/06/11 11:35:18;;;;;;;2.83;1.50;;;43.10;23.30;;;;;;7382949;19;20401;-86
2022/06/11 11:37:58;;;;;;;2.83;1.60;;;42.40;23.60;;;;;;7383676;19;20434;-86
2022/06/11 11:40:35;;;;;;;2.70;1.50;;;41.60;24.20;;;;;;7380747;19;20491;-86
2022/06/11 11:43:12;;;;;;;2.93;1.90;;;41.10;24.30;;;;;;7380268;19;20435;-86
2022/06/11 11:45:47;;;;;;;2.30;1.57;;;40.20;24.90;;;;;;7381200;19;20414;-87
2022/06/11 11:48:22;;;;;;;2.40;1.80;;;38.80;25.90;;;;;;7380641;19;20411;-87
2022/06/11 11:51:09;;;;;;;3.17;1.93;;;37.40;27.20;;;;;;7384460;19;21018;-87
2022/06/11 11:53:45;;;;;;;3.30;2.20;;;36.00;28.80;;;;;;7381917;19;20450;-87
2022/06/11 11:56:32;;;;;;;2.50;1.83;;;35.00;29.70;;;;;;7380740;19;20424;-87
2022/06/11 11:59:09;;;;;;;3.17;1.73;;;34.50;30.20;;;;;;7380916;19;21409;-87
2022/06/11 12:01:39;;;;;;;4.40;1.97;;;35.10;29.90;;;;;;7380294;19;20835;-86
2022/06/11 12:04:16;;;;;;;2.53;1.97;;;36.80;28.50;;;;;;7381959;19;20404;-87
2022/06/11 12:06:59;;;;;;;2.37;1.90;;;38.50;26.80;;;;;;7382881;19;20419;-87
2022/06/11 12:09:31;;;;;;;3.10;2.07;;;40.00;25.70;;;;;;7382020;19;20526;-87
2022/06/11 12:12:12;;;;;;;2.70;2.00;;;41.00;24.70;;;;;;7381505;19;20405;-87
2022/06/11 12:14:53;;;;;;;2.70;1.37;;;42.40;24.10;;;;;;7382371;19;20862;-87
2022/06/11 12:17:29;;;;;;;2.00;1.63;;;43.20;23.30;;;;;;7379574;19;20416;-87
2022/06/11 12:20:03;;;;;;;1.77;1.60;;;42.90;23.10;;;;;;7383989;19;20841;-88
2022/06/11 12:22:41;;;;;;;3.30;1.80;;;41.60;24.30;;;;;;7383305;19;21092;-87
2022/06/11 12:25:21;;;;;;;2.80;1.63;;;41.10;24.60;;;;;;7384738;19;20408;-88
2022/06/11 12:27:53;;;;;;;2.20;1.70;;;41.60;24.50;;;;;;7383474;19;20412;-87
2022/06/11 12:30:27;;;;;;;3.20;2.00;;;41.10;24.50;;;;;;7383392;19;20396;-87
2022/06/11 12:32:57;;;;;;;3.23;1.93;;;40.30;25.10;;;;;;7382859;19;20420;-89
2022/06/11 12:35:33;;;;;;;3.23;2.07;;;39.20;25.60;;;;;;7383207;19;20404;-87
2022/06/11 12:38:16;;;;;;;2.20;1.50;;;39.30;25.80;;;;;;7379000;19;20944;-87
2022/06/11 12:40:51;;;;;;;3.07;2.00;;;40.10;25.70;;;;;;7376256;19;20407;-87
2022/06/11 12:43:39;;;;;;;2.63;1.90;;;40.60;25.00;;;;;;7377270;19;21028;-87
2022/06/11 12:46:18;;;;;;;4.13;2.00;;;40.60;24.80;;;;;;7373277;19;22049;-88
2022/06/11 12:48:52;;;;;;;2.17;1.73;;;40.50;25.00;;;;;;7376285;19;20815;-87
2022/06/11 12:51:31;;;;;;;1.97;1.77;;;40.10;25.30;;;;;;7370699;19;20412;-87
2022/06/11 12:54:06;;;;;;;3.53;1.60;;;40.60;24.90;;;;;;7370412;19;20434;-87
2022/06/11 12:56:52;;;;;;;4.93;1.90;;;41.10;24.10;;;;;;7363038;19;20440;-82
2022/06/11 12:59:42;;;;;;;3.07;2.03;;;41.40;24.40;;;;;;7371329;19;20439;-89
2022/06/11 13:02:23;;;;;;;2.40;1.77;;;42.00;23.70;;;;;;7373567;19;21028;-86
2022/06/11 13:05:11;;;;;;;3.77;1.77;;;42.50;23.50;;;;;;7354431;19;20448;-87
2022/06/11 13:07:54;;;;;;;2.63;1.50;;;42.80;23.00;;;;;;7376868;19;21214;-86
2022/06/11 13:10:40;;;;;;;3.77;1.80;;;43.20;23.00;;;;;;7374181;19;20512;-85
2022/06/11 13:13:28;;;;;;;2.23;1.50;;;43.40;22.20;;;;;;7374961;19;20932;-89
2022/06/11 13:16:03;;;;;;;1.97;1.57;;;42.60;22.80;;;;;;7371359;19;21009;-89
2022/06/11 13:18:58;;;;;;;2.20;1.73;;;42.10;23.40;;;;;;7349245;19;20542;-88
2022/06/11 13:21:42;;;;;;;2.80;1.53;;;42.40;23.20;;;;;;7371855;19;20409;-82
2022/06/11 13:24:22;;;;;;;3.33;1.60;;;42.60;23.20;;;;;;7354986;19;20414;-86
2022/06/11 13:27:02;;;;;;;2.33;1.50;;;42.70;23.40;;;;;;7359500;19;21206;-85
2022/06/11 13:29:55;;;;;;;3.50;2.00;;;42.70;23.20;;;;;;7356738;19;20395;-89
2022/06/11 13:32:38;;;;;;;2.33;1.40;;;44.00;22.80;;;;;;7366003;19;20198;-79